Time;durP1;ratioP1;P1;durP2;ratioP2;P2;SDS_P1;SDS_P2;PMS_P1;PMS_P2;Temp;Humidity;BMP_temperature;BMP_pressure;BME280_temperature;BME280_humidity;BME280_pressure;Samples;Min_cycle;Max_cycle;Signal;HPM_P1;HPM_P2
2020/07/29 00:00:09;;;;;;;15.9;14.35;;;;;;;19.33;100;95347.02;;;;
2020/07/29 00:01:24;;;;;;;15.9;14.35;;;;;;;19.33;100;95347.02;;;;
2020/07/29 00:02:24;;;;;;;15.9;14.35;;;;;;;19.33;100;95347.02;;;;
2020/07/29 00:03:25;;;;;;;15.9;14.35;;;;;;;19.33;100;95347.02;;;;
2020/07/29 00:04:25;;;;;;;15.9;14.35;;;;;;;19.33;100;95347.02;;;;
2020/07/29 00:05:26;;;;;;;15.9;14.35;;;;;;;19.33;100;95347.02;;;;
2020/07/29 00:06:26;;;;;;;15.9;14.35;;;;;;;19.33;100;95347.02;;;;
2020/07/29 00:07:27;;;;;;;15.9;14.35;;;;;;;19.33;100;95347.02;;;;
2020/07/29 00:08:27;;;;;;;15.9;14.35;;;;;;;19.33;100;95347.02;;;;
2020/07/29 00:09:28;;;;;;;15.9;14.35;;;;;;;19.33;100;95347.02;;;;
2020/07/29 00:10:30;;;;;;;15.9;14.35;;;;;;;19.33;100;95347.02;;;;
2020/07/29 00:11:31;;;;;;;15.9;14.35;;;;;;;19.33;100;95347.02;;;;
2020/07/29 00:12:32;;;;;;;15.9;14.35;;;;;;;19.33;100;95347.02;;;;
2020/07/29 00:13:32;;;;;;;15.9;14.35;;;;;;;19.33;100;95347.02;;;;
2020/07/29 00:14:33;;;;;;;15.9;14.35;;;;;;;19.33;100;95347.02;;;;
2020/07/29 00:15:33;;;;;;;15.9;14.35;;;;;;;19.33;100;95347.02;;;;
2020/07/29 00:16:36;;;;;;;15.9;14.35;;;;;;;19.33;100;95347.02;;;;
2020/07/29 00:17:36;;;;;;;15.9;14.35;;;;;;;19.33;100;95347.02;;;;
2020/07/29 00:18:37;;;;;;;15.9;14.35;;;;;;;19.33;100;95347.02;;;;
2020/07/29 00:19:37;;;;;;;15.9;14.35;;;;;;;19.33;100;95347.02;;;;
2020/07/29 00:20:38;;;;;;;15.9;14.35;;;;;;;19.33;100;95347.02;;;;
2020/07/29 00:21:38;;;;;;;15.9;14.35;;;;;;;19.33;100;95347.02;;;;
2020/07/29 00:22:39;;;;;;;15.9;14.35;;;;;;;19.33;100;95347.02;;;;
2020/07/29 00:23:39;;;;;;;15.9;14.35;;;;;;;19.33;100;95347.02;;;;
2020/07/29 00:24:40;;;;;;;15.9;14.35;;;;;;;19.33;100;95347.02;;;;
2020/07/29 00:25:40;;;;;;;15.9;14.35;;;;;;;19.33;100;95347.02;;;;
2020/07/29 00:26:41;;;;;;;15.9;14.35;;;;;;;19.33;100;95347.02;;;;
2020/07/29 00:27:41;;;;;;;15.9;14.35;;;;;;;19.33;100;95347.02;;;;
2020/07/29 00:28:42;;;;;;;15.9;14.35;;;;;;;19.33;100;95347.02;;;;
2020/07/29 00:29:42;;;;;;;15.9;14.35;;;;;;;19.33;100;95347.02;;;;
2020/07/29 00:30:43;;;;;;;15.9;14.35;;;;;;;19.33;100;95347.02;;;;
2020/07/29 00:31:43;;;;;;;15.9;14.35;;;;;;;19.33;100;95347.02;;;;
2020/07/29 00:32:44;;;;;;;15.9;14.35;;;;;;;19.33;100;95347.02;;;;
2020/07/29 00:33:45;;;;;;;15.9;14.35;;;;;;;19.33;100;95347.02;;;;
2020/07/29 00:34:45;;;;;;;15.9;14.35;;;;;;;19.33;100;95347.02;;;;
2020/07/29 00:35:46;;;;;;;15.9;14.35;;;;;;;19.33;100;95347.02;;;;
2020/07/29 00:36:46;;;;;;;15.9;14.35;;;;;;;19.33;100;95347.02;;;;
2020/07/29 00:37:47;;;;;;;15.9;14.35;;;;;;;19.33;100;95347.02;;;;
2020/07/29 00:38:47;;;;;;;15.9;14.35;;;;;;;19.33;100;95347.02;;;;
2020/07/29 00:39:48;;;;;;;15.9;14.35;;;;;;;19.33;100;95347.02;;;;
2020/07/29 00:40:48;;;;;;;15.9;14.35;;;;;;;19.33;100;95347.02;;;;
2020/07/29 00:41:49;;;;;;;15.9;14.35;;;;;;;19.33;100;95347.02;;;;
2020/07/29 01:13:51;;;;;;;12.05;10.95;;;;;;;18.49;100;95361.63;;;;
2020/07/29 01:14:52;;;;;;;12.05;10.95;;;;;;;18.49;100;95361.63;;;;
2020/07/29 01:15:54;;;;;;;12.05;10.95;;;;;;;18.49;100;95361.63;;;;
2020/07/29 01:16:57;;;;;;;12.05;10.95;;;;;;;18.49;100;95361.63;;;;
2020/07/29 01:17:58;;;;;;;12.05;10.95;;;;;;;18.49;100;95361.63;;;;
2020/07/29 01:18:58;;;;;;;12.05;10.95;;;;;;;18.49;100;95361.63;;;;
2020/07/29 01:19:59;;;;;;;12.05;10.95;;;;;;;18.49;100;95361.63;;;;
2020/07/29 01:20:59;;;;;;;12.05;10.95;;;;;;;18.49;100;95361.63;;;;
2020/07/29 01:22:00;;;;;;;12.05;10.95;;;;;;;18.49;100;95361.63;;;;
2020/07/29 01:23:01;;;;;;;12.05;10.95;;;;;;;18.49;100;95361.63;;;;
2020/07/29 01:24:03;;;;;;;12.05;10.95;;;;;;;18.49;100;95361.63;;;;
2020/07/29 01:25:04;;;;;;;12.05;10.95;;;;;;;18.49;100;95361.63;;;;
2020/07/29 01:26:10;;;;;;;12.05;10.95;;;;;;;18.49;100;95361.63;;;;
2020/07/29 01:27:12;;;;;;;12.05;10.95;;;;;;;18.49;100;95361.63;;;;
2020/07/29 01:28:12;;;;;;;12.05;10.95;;;;;;;18.49;100;95361.63;;;;
2020/07/29 01:29:14;;;;;;;12.05;10.95;;;;;;;18.49;100;95361.63;;;;
2020/07/29 01:30:15;;;;;;;12.05;10.95;;;;;;;18.49;100;95361.63;;;;
2020/07/29 01:31:16;;;;;;;12.05;10.95;;;;;;;18.49;100;95361.63;;;;
2020/07/29 01:32:16;;;;;;;12.05;10.95;;;;;;;18.49;100;95361.63;;;;
2020/07/29 01:33:17;;;;;;;12.05;10.95;;;;;;;18.49;100;95361.63;;;;
2020/07/29 01:34:18;;;;;;;12.05;10.95;;;;;;;18.49;100;95361.63;;;;
2020/07/29 01:35:18;;;;;;;10.45;9.5;;;;;;;18.05;100;95383.42;;;;
2020/07/29 01:36:19;;;;;;;10.45;9.5;;;;;;;18.05;100;95383.42;;;;
2020/07/29 01:37:19;;;;;;;10.45;9.5;;;;;;;18.05;100;95383.42;;;;
2020/07/29 01:38:20;;;;;;;10.45;9.5;;;;;;;18.05;100;95383.42;;;;
2020/07/29 01:39:20;;;;;;;10.45;9.5;;;;;;;18.05;100;95383.42;;;;
2020/07/29 01:40:21;;;;;;;10.45;9.5;;;;;;;18.05;100;95383.42;;;;
2020/07/29 01:41:21;;;;;;;10.45;9.5;;;;;;;18.05;100;95383.42;;;;
2020/07/29 01:42:22;;;;;;;10.45;9.5;;;;;;;18.05;100;95383.42;;;;
2020/07/29 01:43:22;;;;;;;10.45;9.5;;;;;;;18.05;100;95383.42;;;;
2020/07/29 01:44:23;;;;;;;10.45;9.5;;;;;;;18.05;100;95383.42;;;;
2020/07/29 01:45:23;;;;;;;10.45;9.5;;;;;;;18.05;100;95383.42;;;;
2020/07/29 01:46:25;;;;;;;10.45;9.5;;;;;;;18.05;100;95383.42;;;;
2020/07/29 01:47:25;;;;;;;10.45;9.5;;;;;;;18.05;100;95383.42;;;;
2020/07/29 01:48:26;;;;;;;10.45;9.5;;;;;;;18.05;100;95383.42;;;;
2020/07/29 01:49:26;;;;;;;10.45;9.5;;;;;;;18.05;100;95383.42;;;;
2020/07/29 01:50:27;;;;;;;10.45;9.5;;;;;;;18.05;100;95383.42;;;;
2020/07/29 01:51:27;;;;;;;10.45;9.5;;;;;;;18.05;100;95383.42;;;;
2020/07/29 01:52:28;;;;;;;10.45;9.5;;;;;;;18.05;100;95383.42;;;;
2020/07/29 01:53:28;;;;;;;10.45;9.5;;;;;;;18.05;100;95383.42;;;;
2020/07/29 01:54:29;;;;;;;10.45;9.5;;;;;;;18.05;100;95383.42;;;;
2020/07/29 01:55:29;;;;;;;10.45;9.5;;;;;;;18.05;100;95383.42;;;;
2020/07/29 01:56:30;;;;;;;10.45;9.5;;;;;;;18.05;100;95383.42;;;;
2020/07/29 01:57:30;;;;;;;10.45;9.5;;;;;;;18.05;100;95383.42;;;;
2020/07/29 01:58:31;;;;;;;10.45;9.5;;;;;;;18.05;100;95383.42;;;;
2020/07/29 01:59:32;;;;;;;10.45;9.5;;;;;;;18.05;100;95383.42;;;;
2020/07/29 02:00:32;;;;;;;10.45;9.5;;;;;;;18.05;100;95383.42;;;;
2020/07/29 02:01:33;;;;;;;10.45;9.5;;;;;;;18.05;100;95383.42;;;;
2020/07/29 02:02:33;;;;;;;10.45;9.5;;;;;;;18.05;100;95383.42;;;;
2020/07/29 02:03:34;;;;;;;10.45;9.5;;;;;;;18.05;100;95383.42;;;;
2020/07/29 02:04:34;;;;;;;10.45;9.5;;;;;;;18.05;100;95383.42;;;;
2020/07/29 02:05:35;;;;;;;10.45;9.5;;;;;;;18.05;100;95383.42;;;;
2020/07/29 02:06:35;;;;;;;10.45;9.5;;;;;;;18.05;100;95383.42;;;;
2020/07/29 02:07:36;;;;;;;10.45;9.5;;;;;;;18.05;100;95383.42;;;;
2020/07/29 02:08:37;;;;;;;10.45;9.5;;;;;;;18.05;100;95383.42;;;;
2020/07/29 02:09:37;;;;;;;10.45;9.5;;;;;;;18.05;100;95383.42;;;;
2020/07/29 02:10:38;;;;;;;10.45;9.5;;;;;;;18.05;100;95383.42;;;;
2020/07/29 02:11:39;;;;;;;10.45;9.5;;;;;;;18.05;100;95383.42;;;;
2020/07/29 02:12:40;;;;;;;10.45;9.5;;;;;;;18.05;100;95383.42;;;;
2020/07/29 02:13:40;;;;;;;10.45;9.5;;;;;;;18.05;100;95383.42;;;;
2020/07/29 02:14:41;;;;;;;10.45;9.5;;;;;;;18.05;100;95383.42;;;;
2020/07/29 02:15:41;;;;;;;10.45;9.5;;;;;;;18.05;100;95383.42;;;;
2020/07/29 02:16:42;;;;;;;10.45;9.5;;;;;;;18.05;100;95383.42;;;;
2020/07/29 02:17:42;;;;;;;10.45;9.5;;;;;;;18.05;100;95383.42;;;;
2020/07/29 02:18:43;;;;;;;10.45;9.5;;;;;;;18.05;100;95383.42;;;;
2020/07/29 02:19:43;;;;;;;10.45;9.5;;;;;;;18.05;100;95383.42;;;;
2020/07/29 02:40:45;;;;;;;8.35;7.249999;;;;;;;17.56;100;95426.17;;;;
2020/07/29 02:41:45;;;;;;;8.35;7.249999;;;;;;;17.56;100;95426.17;;;;
2020/07/29 02:42:46;;;;;;;8.35;7.249999;;;;;;;17.56;100;95426.17;;;;
2020/07/29 02:43:46;;;;;;;8.35;7.249999;;;;;;;17.56;100;95426.17;;;;
2020/07/29 02:44:47;;;;;;;8.35;7.249999;;;;;;;17.56;100;95426.17;;;;
2020/07/29 02:45:47;;;;;;;8.35;7.249999;;;;;;;17.56;100;95426.17;;;;
2020/07/29 02:46:48;;;;;;;8.35;7.249999;;;;;;;17.56;100;95426.17;;;;
2020/07/29 02:47:48;;;;;;;8.35;7.249999;;;;;;;17.56;100;95426.17;;;;
2020/07/29 02:48:49;;;;;;;8.35;7.249999;;;;;;;17.56;100;95426.17;;;;
2020/07/29 02:49:49;;;;;;;8.35;7.249999;;;;;;;17.56;100;95426.17;;;;
2020/07/29 02:50:50;;;;;;;8.35;7.249999;;;;;;;17.56;100;95426.17;;;;
2020/07/29 02:51:50;;;;;;;8.35;7.249999;;;;;;;17.56;100;95426.17;;;;
2020/07/29 02:52:51;;;;;;;8.35;7.249999;;;;;;;17.56;100;95426.17;;;;
2020/07/29 02:53:51;;;;;;;8.35;7.249999;;;;;;;17.56;100;95426.17;;;;
2020/07/29 02:54:52;;;;;;;8.35;7.249999;;;;;;;17.56;100;95426.17;;;;
2020/07/29 02:55:52;;;;;;;8.35;7.249999;;;;;;;17.56;100;95426.17;;;;
2020/07/29 02:56:53;;;;;;;8.35;7.249999;;;;;;;17.56;100;95426.17;;;;
2020/07/29 02:57:53;;;;;;;8.35;7.249999;;;;;;;17.56;100;95426.17;;;;
2020/07/29 02:58:54;;;;;;;8.35;7.249999;;;;;;;17.56;100;95426.17;;;;
2020/07/29 02:59:54;;;;;;;8.35;7.249999;;;;;;;17.56;100;95426.17;;;;
2020/07/29 03:00:55;;;;;;;8.35;7.249999;;;;;;;17.56;100;95426.17;;;;
2020/07/29 03:01:55;;;;;;;8.749998;7.849999;;;;;;;17.3;100;95452.66;;;;
2020/07/29 03:02:56;;;;;;;8.749998;7.849999;;;;;;;17.3;100;95452.66;;;;
2020/07/29 03:03:57;;;;;;;8.749998;7.849999;;;;;;;17.3;100;95452.66;;;;
2020/07/29 03:04:57;;;;;;;8.749998;7.849999;;;;;;;17.3;100;95452.66;;;;
2020/07/29 03:05:58;;;;;;;8.749998;7.849999;;;;;;;17.3;100;95452.66;;;;
2020/07/29 03:06:58;;;;;;;8.749998;7.849999;;;;;;;17.3;100;95452.66;;;;
2020/07/29 03:07:59;;;;;;;8.749998;7.849999;;;;;;;17.3;100;95452.66;;;;
2020/07/29 03:08:59;;;;;;;8.749998;7.849999;;;;;;;17.3;100;95452.66;;;;
2020/07/29 03:10:00;;;;;;;8.749998;7.849999;;;;;;;17.3;100;95452.66;;;;
2020/07/29 03:11:00;;;;;;;8.749998;7.849999;;;;;;;17.3;100;95452.66;;;;
2020/07/29 03:12:01;;;;;;;8.749998;7.849999;;;;;;;17.3;100;95452.66;;;;
2020/07/29 03:13:01;;;;;;;8.749998;7.849999;;;;;;;17.3;100;95452.66;;;;
2020/07/29 03:14:02;;;;;;;8.749998;7.849999;;;;;;;17.3;100;95452.66;;;;
2020/07/29 03:15:02;;;;;;;8.749998;7.849999;;;;;;;17.3;100;95452.66;;;;
2020/07/29 03:16:04;;;;;;;8.749998;7.849999;;;;;;;17.3;100;95452.66;;;;
2020/07/29 03:17:04;;;;;;;8.749998;7.849999;;;;;;;17.3;100;95452.66;;;;
2020/07/29 03:18:05;;;;;;;8.749998;7.849999;;;;;;;17.3;100;95452.66;;;;
2020/07/29 03:19:05;;;;;;;8.749998;7.849999;;;;;;;17.3;100;95452.66;;;;
2020/07/29 03:20:06;;;;;;;8.749998;7.849999;;;;;;;17.3;100;95452.66;;;;
2020/07/29 03:21:07;;;;;;;8.749998;7.849999;;;;;;;17.3;100;95452.66;;;;
2020/07/29 03:22:08;;;;;;;8.749998;7.849999;;;;;;;17.3;100;95452.66;;;;
2020/07/29 03:23:08;;;;;;;8.749998;7.849999;;;;;;;17.3;100;95452.66;;;;
2020/07/29 03:24:09;;;;;;;8.749998;7.849999;;;;;;;17.3;100;95452.66;;;;
2020/07/29 03:25:09;;;;;;;8.749998;7.849999;;;;;;;17.3;100;95452.66;;;;
2020/07/29 03:26:10;;;;;;;8.749998;7.849999;;;;;;;17.3;100;95452.66;;;;
2020/07/29 03:27:10;;;;;;;8.749998;7.849999;;;;;;;17.3;100;95452.66;;;;
2020/07/29 03:28:11;;;;;;;8.749998;7.849999;;;;;;;17.3;100;95452.66;;;;
2020/07/29 03:29:11;;;;;;;8.749998;7.849999;;;;;;;17.3;100;95452.66;;;;
2020/07/29 03:30:12;;;;;;;8.749998;7.849999;;;;;;;17.3;100;95452.66;;;;
2020/07/29 03:31:13;;;;;;;8.749998;7.849999;;;;;;;17.3;100;95452.66;;;;
2020/07/29 03:32:14;;;;;;;8.749998;7.849999;;;;;;;17.3;100;95452.66;;;;
2020/07/29 03:33:15;;;;;;;8.749998;7.849999;;;;;;;17.3;100;95452.66;;;;
2020/07/29 03:34:16;;;;;;;8.299999;7.55;;;;;;;17.2;100;95457.15;;;;
2020/07/29 03:35:17;;;;;;;8.299999;7.55;;;;;;;17.2;100;95457.15;;;;
2020/07/29 03:36:17;;;;;;;8.299999;7.55;;;;;;;17.2;100;95457.15;;;;
2020/07/29 03:37:18;;;;;;;8.299999;7.55;;;;;;;17.2;100;95457.15;;;;
2020/07/29 03:38:18;;;;;;;8.299999;7.55;;;;;;;17.2;100;95457.15;;;;
2020/07/29 03:39:19;;;;;;;8.299999;7.55;;;;;;;17.2;100;95457.15;;;;
2020/07/29 03:40:19;;;;;;;8.299999;7.55;;;;;;;17.2;100;95457.15;;;;
2020/07/29 03:41:20;;;;;;;8.299999;7.55;;;;;;;17.2;100;95457.15;;;;
2020/07/29 03:42:21;;;;;;;8.299999;7.55;;;;;;;17.2;100;95457.15;;;;
2020/07/29 03:43:21;;;;;;;8.299999;7.55;;;;;;;17.2;100;95457.15;;;;
2020/07/29 03:44:22;;;;;;;8.299999;7.55;;;;;;;17.2;100;95457.15;;;;
2020/07/29 03:45:23;;;;;;;8.299999;7.55;;;;;;;17.2;100;95457.15;;;;
2020/07/29 03:46:23;;;;;;;8.299999;7.55;;;;;;;17.2;100;95457.15;;;;
2020/07/29 03:47:24;;;;;;;8.299999;7.55;;;;;;;17.2;100;95457.15;;;;
2020/07/29 03:48:25;;;;;;;8.299999;7.55;;;;;;;17.2;100;95457.15;;;;
2020/07/29 03:49:26;;;;;;;8.299999;7.55;;;;;;;17.2;100;95457.15;;;;
2020/07/29 03:50:26;;;;;;;8.299999;7.55;;;;;;;17.2;100;95457.15;;;;
2020/07/29 03:51:27;;;;;;;8.299999;7.55;;;;;;;17.2;100;95457.15;;;;
2020/07/29 03:52:27;;;;;;;8.299999;7.55;;;;;;;17.2;100;95457.15;;;;
2020/07/29 03:53:28;;;;;;;8.299999;7.55;;;;;;;17.2;100;95457.15;;;;
2020/07/29 03:54:28;;;;;;;8.299999;7.55;;;;;;;17.2;100;95457.15;;;;
2020/07/29 03:55:29;;;;;;;8.299999;7.55;;;;;;;17.2;100;95457.15;;;;
2020/07/29 03:56:29;;;;;;;8.299999;7.55;;;;;;;17.2;100;95457.15;;;;
2020/07/29 03:57:29;;;;;;;8.299999;7.55;;;;;;;17.2;100;95457.15;;;;
2020/07/29 03:58:30;;;;;;;8.299999;7.55;;;;;;;17.2;100;95457.15;;;;
2020/07/29 03:59:30;;;;;;;8.299999;7.55;;;;;;;17.2;100;95457.15;;;;
2020/07/29 04:00:31;;;;;;;8.299999;7.55;;;;;;;17.2;100;95457.15;;;;
2020/07/29 04:01:32;;;;;;;8.299999;7.55;;;;;;;17.2;100;95457.15;;;;
2020/07/29 04:02:32;;;;;;;8.299999;7.55;;;;;;;17.2;100;95457.15;;;;
2020/07/29 04:03:33;;;;;;;8.299999;7.55;;;;;;;17.2;100;95457.15;;;;
2020/07/29 04:04:33;;;;;;;8.299999;7.55;;;;;;;17.2;100;95457.15;;;;
2020/07/29 04:05:34;;;;;;;8.299999;7.55;;;;;;;17.2;100;95457.15;;;;
2020/07/29 04:06:34;;;;;;;8.299999;7.55;;;;;;;17.2;100;95457.15;;;;
2020/07/29 04:07:35;;;;;;;8.299999;7.55;;;;;;;17.2;100;95457.15;;;;
2020/07/29 04:08:35;;;;;;;8.299999;7.55;;;;;;;17.2;100;95457.15;;;;
2020/07/29 04:09:36;;;;;;;8.299999;7.55;;;;;;;17.2;100;95457.15;;;;
2020/07/29 04:10:36;;;;;;;8.299999;7.55;;;;;;;17.2;100;95457.15;;;;
2020/07/29 04:11:37;;;;;;;8.299999;7.55;;;;;;;17.2;100;95457.15;;;;
2020/07/29 04:12:37;;;;;;;8.299999;7.55;;;;;;;17.2;100;95457.15;;;;
2020/07/29 04:13:38;;;;;;;8.299999;7.55;;;;;;;17.2;100;95457.15;;;;
2020/07/29 04:14:38;;;;;;;8.299999;7.55;;;;;;;17.2;100;95457.15;;;;
2020/07/29 04:15:39;;;;;;;8.299999;7.55;;;;;;;17.2;100;95457.15;;;;
2020/07/29 04:16:39;;;;;;;8.299999;7.55;;;;;;;17.2;100;95457.15;;;;
2020/07/29 04:17:40;;;;;;;8.299999;7.55;;;;;;;17.2;100;95457.15;;;;
2020/07/29 04:18:41;;;;;;;8.299999;7.55;;;;;;;17.2;100;95457.15;;;;
2020/07/29 04:39:42;;;;;;;10.25;9.15;;;;;;;17.42;100;95497;;;;
2020/07/29 04:40:43;;;;;;;10.25;9.15;;;;;;;17.42;100;95497;;;;
2020/07/29 04:41:43;;;;;;;10.25;9.15;;;;;;;17.42;100;95497;;;;
2020/07/29 04:42:44;;;;;;;10.25;9.15;;;;;;;17.42;100;95497;;;;
2020/07/29 04:43:44;;;;;;;10.25;9.15;;;;;;;17.42;100;95497;;;;
2020/07/29 04:44:45;;;;;;;10.25;9.15;;;;;;;17.42;100;95497;;;;
2020/07/29 04:45:45;;;;;;;10.25;9.15;;;;;;;17.42;100;95497;;;;
2020/07/29 04:46:46;;;;;;;10.25;9.15;;;;;;;17.42;100;95497;;;;
2020/07/29 04:47:46;;;;;;;10.25;9.15;;;;;;;17.42;100;95497;;;;
2020/07/29 04:48:47;;;;;;;10.25;9.15;;;;;;;17.42;100;95497;;;;
2020/07/29 04:49:47;;;;;;;10.05;9.15;;;;;;;17.51;100;95491.17;;;;
2020/07/29 04:50:47;;;;;;;10.05;9.15;;;;;;;17.51;100;95491.17;;;;
2020/07/29 04:51:48;;;;;;;10.05;9.15;;;;;;;17.51;100;95491.17;;;;
2020/07/29 04:52:48;;;;;;;10.05;9.15;;;;;;;17.51;100;95491.17;;;;
2020/07/29 04:53:49;;;;;;;10.05;9.15;;;;;;;17.51;100;95491.17;;;;
2020/07/29 04:54:50;;;;;;;10.05;9.15;;;;;;;17.51;100;95491.17;;;;
2020/07/29 04:55:50;;;;;;;10.05;9.15;;;;;;;17.51;100;95491.17;;;;
2020/07/29 04:56:51;;;;;;;10.05;9.15;;;;;;;17.51;100;95491.17;;;;
2020/07/29 04:57:51;;;;;;;10.05;9.15;;;;;;;17.51;100;95491.17;;;;
2020/07/29 04:58:51;;;;;;;10.05;9.15;;;;;;;17.51;100;95491.17;;;;
2020/07/29 04:59:52;;;;;;;10.05;9.15;;;;;;;17.51;100;95491.17;;;;
2020/07/29 05:00:52;;;;;;;9.799999;8.549999;;;;;;;17.68;100;95502.23;;;;
2020/07/29 05:01:53;;;;;;;9.799999;8.549999;;;;;;;17.68;100;95502.23;;;;
2020/07/29 05:02:53;;;;;;;9.799999;8.549999;;;;;;;17.68;100;95502.23;;;;
2020/07/29 05:03:54;;;;;;;9.799999;8.549999;;;;;;;17.68;100;95502.23;;;;
2020/07/29 05:04:54;;;;;;;9.799999;8.549999;;;;;;;17.68;100;95502.23;;;;
2020/07/29 05:05:55;;;;;;;9.799999;8.549999;;;;;;;17.68;100;95502.23;;;;
2020/07/29 05:06:56;;;;;;;9.799999;8.549999;;;;;;;17.68;100;95502.23;;;;
2020/07/29 05:07:56;;;;;;;9.799999;8.549999;;;;;;;17.68;100;95502.23;;;;
2020/07/29 05:08:57;;;;;;;9.799999;8.549999;;;;;;;17.68;100;95502.23;;;;
2020/07/29 05:09:57;;;;;;;9.799999;8.549999;;;;;;;17.68;100;95502.23;;;;
2020/07/29 05:10:58;;;;;;;9.65;7.8;;;;;;;17.82;100;95507.93;;;;
2020/07/29 05:11:58;;;;;;;9.65;7.8;;;;;;;17.82;100;95507.93;;;;
2020/07/29 05:12:59;;;;;;;9.65;7.8;;;;;;;17.82;100;95507.93;;;;
2020/07/29 05:13:59;;;;;;;9.65;7.8;;;;;;;17.82;100;95507.93;;;;
2020/07/29 05:15:00;;;;;;;9.65;7.8;;;;;;;17.82;100;95507.93;;;;
2020/07/29 05:16:00;;;;;;;9.65;7.8;;;;;;;17.82;100;95507.93;;;;
2020/07/29 05:17:01;;;;;;;9.65;7.8;;;;;;;17.82;100;95507.93;;;;
2020/07/29 05:18:01;;;;;;;9.65;7.8;;;;;;;17.82;100;95507.93;;;;
2020/07/29 05:19:02;;;;;;;9.65;7.8;;;;;;;17.82;100;95507.93;;;;
2020/07/29 05:20:02;;;;;;;9.65;7.8;;;;;;;17.82;100;95507.93;;;;
2020/07/29 05:21:03;;;;;;;9.65;7.8;;;;;;;17.82;100;95507.93;;;;
2020/07/29 05:22:03;;;;;;;9.65;7.6;;;;;;;18.01;100;95521.69;;;;
2020/07/29 05:23:04;;;;;;;9.65;7.6;;;;;;;18.01;100;95521.69;;;;
2020/07/29 05:24:04;;;;;;;9.65;7.6;;;;;;;18.01;100;95521.69;;;;
2020/07/29 05:25:05;;;;;;;9.65;7.6;;;;;;;18.01;100;95521.69;;;;
2020/07/29 05:26:05;;;;;;;9.65;7.6;;;;;;;18.01;100;95521.69;;;;
2020/07/29 05:27:06;;;;;;;9.65;7.6;;;;;;;18.01;100;95521.69;;;;
2020/07/29 05:28:06;;;;;;;9.65;7.6;;;;;;;18.01;100;95521.69;;;;
2020/07/29 05:29:07;;;;;;;9.65;7.6;;;;;;;18.01;100;95521.69;;;;
2020/07/29 05:30:07;;;;;;;9.65;7.6;;;;;;;18.01;100;95521.69;;;;
2020/07/29 05:31:08;;;;;;;9.65;7.6;;;;;;;18.01;100;95521.69;;;;
2020/07/29 05:32:08;;;;;;;8.600001;7.550002;;;;;;;18.15;100;95506.76;;;;
2020/07/29 05:33:09;;;;;;;8.600001;7.550002;;;;;;;18.15;100;95506.76;;;;
2020/07/29 05:34:09;;;;;;;8.600001;7.550002;;;;;;;18.15;100;95506.76;;;;
2020/07/29 05:35:10;;;;;;;8.600001;7.550002;;;;;;;18.15;100;95506.76;;;;
2020/07/29 05:36:10;;;;;;;8.600001;7.550002;;;;;;;18.15;100;95506.76;;;;
2020/07/29 05:37:11;;;;;;;8.600001;7.550002;;;;;;;18.15;100;95506.76;;;;
2020/07/29 05:38:11;;;;;;;8.600001;7.550002;;;;;;;18.15;100;95506.76;;;;
2020/07/29 05:39:12;;;;;;;8.600001;7.550002;;;;;;;18.15;100;95506.76;;;;
2020/07/29 05:40:12;;;;;;;8.600001;7.550002;;;;;;;18.15;100;95506.76;;;;
2020/07/29 05:41:13;;;;;;;8.600001;7.550002;;;;;;;18.15;100;95506.76;;;;
2020/07/29 05:42:13;;;;;;;8.600001;7.550002;;;;;;;18.15;100;95506.76;;;;
2020/07/29 05:43:14;;;;;;;6.299999;5.6;;;;;;;18.46;100;95526.25;;;;
2020/07/29 05:44:14;;;;;;;6.299999;5.6;;;;;;;18.46;100;95526.25;;;;
2020/07/29 05:45:15;;;;;;;6.299999;5.6;;;;;;;18.46;100;95526.25;;;;
2020/07/29 05:46:15;;;;;;;6.299999;5.6;;;;;;;18.46;100;95526.25;;;;
2020/07/29 05:47:16;;;;;;;6.299999;5.6;;;;;;;18.46;100;95526.25;;;;
2020/07/29 05:48:16;;;;;;;6.299999;5.6;;;;;;;18.46;100;95526.25;;;;
2020/07/29 05:49:17;;;;;;;6.299999;5.6;;;;;;;18.46;100;95526.25;;;;
2020/07/29 05:50:17;;;;;;;6.299999;5.6;;;;;;;18.46;100;95526.25;;;;
2020/07/29 05:51:18;;;;;;;6.299999;5.6;;;;;;;18.46;100;95526.25;;;;
2020/07/29 05:52:18;;;;;;;6.299999;5.6;;;;;;;18.46;100;95526.25;;;;
2020/07/29 05:53:19;;;;;;;6.5;4.55;;;;;;;19.24;100;95534.48;;;;
2020/07/29 05:54:19;;;;;;;6.5;4.55;;;;;;;19.24;100;95534.48;;;;
2020/07/29 05:55:20;;;;;;;6.5;4.55;;;;;;;19.24;100;95534.48;;;;
2020/07/29 05:56:20;;;;;;;6.5;4.55;;;;;;;19.24;100;95534.48;;;;
2020/07/29 05:57:21;;;;;;;6.5;4.55;;;;;;;19.24;100;95534.48;;;;
2020/07/29 05:58:21;;;;;;;6.5;4.55;;;;;;;19.24;100;95534.48;;;;
2020/07/29 05:59:22;;;;;;;6.5;4.55;;;;;;;19.24;100;95534.48;;;;
2020/07/29 06:00:22;;;;;;;6.5;4.55;;;;;;;19.24;100;95534.48;;;;
2020/07/29 06:01:23;;;;;;;6.5;4.55;;;;;;;19.24;100;95534.48;;;;
2020/07/29 06:02:23;;;;;;;6.5;4.55;;;;;;;19.24;100;95534.48;;;;
2020/07/29 06:03:24;;;;;;;6.5;4.55;;;;;;;19.24;100;95534.48;;;;
2020/07/29 06:04:24;;;;;;;5.5;4.95;;;;;;;19.69;100;95533.76;;;;
2020/07/29 06:05:25;;;;;;;5.5;4.95;;;;;;;19.69;100;95533.76;;;;
2020/07/29 06:06:25;;;;;;;5.5;4.95;;;;;;;19.69;100;95533.76;;;;
2020/07/29 06:07:26;;;;;;;5.5;4.95;;;;;;;19.69;100;95533.76;;;;
2020/07/29 06:08:26;;;;;;;5.5;4.95;;;;;;;19.69;100;95533.76;;;;
2020/07/29 06:09:26;;;;;;;5.5;4.95;;;;;;;19.69;100;95533.76;;;;
2020/07/29 06:10:27;;;;;;;5.5;4.95;;;;;;;19.69;100;95533.76;;;;
2020/07/29 06:11:27;;;;;;;5.5;4.95;;;;;;;19.69;100;95533.76;;;;
2020/07/29 06:12:28;;;;;;;5.5;4.95;;;;;;;19.69;100;95533.76;;;;
2020/07/29 06:13:28;;;;;;;5.5;4.95;;;;;;;19.69;100;95533.76;;;;
2020/07/29 06:14:29;;;;;;;7.15;4.699999;;;;;;;19.93;100;95550.12;;;;
2020/07/29 06:15:29;;;;;;;7.15;4.699999;;;;;;;19.93;100;95550.12;;;;
2020/07/29 06:16:30;;;;;;;7.15;4.699999;;;;;;;19.93;100;95550.12;;;;
2020/07/29 06:17:30;;;;;;;7.15;4.699999;;;;;;;19.93;100;95550.12;;;;
2020/07/29 06:18:31;;;;;;;7.15;4.699999;;;;;;;19.93;100;95550.12;;;;
2020/07/29 06:19:31;;;;;;;7.15;4.699999;;;;;;;19.93;100;95550.12;;;;
2020/07/29 06:20:32;;;;;;;7.15;4.699999;;;;;;;19.93;100;95550.12;;;;
2020/07/29 06:21:32;;;;;;;7.15;4.699999;;;;;;;19.93;100;95550.12;;;;
2020/07/29 06:22:33;;;;;;;7.15;4.699999;;;;;;;19.93;100;95550.12;;;;
2020/07/29 06:23:33;;;;;;;7.15;4.699999;;;;;;;19.93;100;95550.12;;;;
2020/07/29 06:24:34;;;;;;;7.15;4.699999;;;;;;;19.93;100;95550.12;;;;
2020/07/29 06:25:34;;;;;;;8.6;5;;;;;;;20.21;100;95549.91;;;;
2020/07/29 06:26:35;;;;;;;8.6;5;;;;;;;20.21;100;95549.91;;;;
2020/07/29 06:27:35;;;;;;;8.6;5;;;;;;;20.21;100;95549.91;;;;
2020/07/29 06:28:36;;;;;;;8.6;5;;;;;;;20.21;100;95549.91;;;;
2020/07/29 06:29:36;;;;;;;8.6;5;;;;;;;20.21;100;95549.91;;;;
2020/07/29 06:30:37;;;;;;;8.6;5;;;;;;;20.21;100;95549.91;;;;
2020/07/29 06:31:37;;;;;;;8.6;5;;;;;;;20.21;100;95549.91;;;;
2020/07/29 06:32:37;;;;;;;8.6;5;;;;;;;20.21;100;95549.91;;;;
2020/07/29 06:33:38;;;;;;;8.6;5;;;;;;;20.21;100;95549.91;;;;
2020/07/29 06:34:39;;;;;;;8.6;5;;;;;;;20.21;100;95549.91;;;;
2020/07/29 06:35:39;;;;;;;6.65;4.3;;;;;;;20.69;100;95551.56;;;;
2020/07/29 06:36:40;;;;;;;6.65;4.3;;;;;;;20.69;100;95551.56;;;;
2020/07/29 06:37:40;;;;;;;6.65;4.3;;;;;;;20.69;100;95551.56;;;;
2020/07/29 06:38:40;;;;;;;6.65;4.3;;;;;;;20.69;100;95551.56;;;;
2020/07/29 06:39:41;;;;;;;6.65;4.3;;;;;;;20.69;100;95551.56;;;;
2020/07/29 06:40:41;;;;;;;6.65;4.3;;;;;;;20.69;100;95551.56;;;;
2020/07/29 06:41:42;;;;;;;6.65;4.3;;;;;;;20.69;100;95551.56;;;;
2020/07/29 06:42:42;;;;;;;6.65;4.3;;;;;;;20.69;100;95551.56;;;;
2020/07/29 06:43:43;;;;;;;6.65;4.3;;;;;;;20.69;100;95551.56;;;;
2020/07/29 06:44:43;;;;;;;6.65;4.3;;;;;;;20.69;100;95551.56;;;;
2020/07/29 06:45:44;;;;;;;6.65;4.3;;;;;;;20.69;100;95551.56;;;;
2020/07/29 06:46:44;;;;;;;7.900001;4.5;;;;;;;21.24;100;95569.3;;;;
2020/07/29 06:47:45;;;;;;;7.900001;4.5;;;;;;;21.24;100;95569.3;;;;
2020/07/29 06:48:45;;;;;;;7.900001;4.5;;;;;;;21.24;100;95569.3;;;;
2020/07/29 06:49:46;;;;;;;7.900001;4.5;;;;;;;21.24;100;95569.3;;;;
2020/07/29 06:50:46;;;;;;;7.900001;4.5;;;;;;;21.24;100;95569.3;;;;
2020/07/29 06:51:46;;;;;;;7.900001;4.5;;;;;;;21.24;100;95569.3;;;;
2020/07/29 06:52:47;;;;;;;7.900001;4.5;;;;;;;21.24;100;95569.3;;;;
2020/07/29 06:53:47;;;;;;;7.900001;4.5;;;;;;;21.24;100;95569.3;;;;
2020/07/29 06:54:48;;;;;;;7.900001;4.5;;;;;;;21.24;100;95569.3;;;;
2020/07/29 06:55:49;;;;;;;7.900001;4.5;;;;;;;21.24;100;95569.3;;;;
2020/07/29 06:56:49;;;;;;;7.05;4.699999;;;;;;;21.5;100;95570.72;;;;
2020/07/29 06:57:50;;;;;;;7.05;4.699999;;;;;;;21.5;100;95570.72;;;;
2020/07/29 06:58:50;;;;;;;7.05;4.699999;;;;;;;21.5;100;95570.72;;;;
2020/07/29 06:59:51;;;;;;;7.05;4.699999;;;;;;;21.5;100;95570.72;;;;
2020/07/29 07:00:52;;;;;;;7.05;4.699999;;;;;;;21.5;100;95570.72;;;;
2020/07/29 07:01:52;;;;;;;7.05;4.699999;;;;;;;21.5;100;95570.72;;;;
2020/07/29 07:02:53;;;;;;;7.05;4.699999;;;;;;;21.5;100;95570.72;;;;
2020/07/29 07:03:53;;;;;;;7.05;4.699999;;;;;;;21.5;100;95570.72;;;;
2020/07/29 07:04:54;;;;;;;7.05;4.699999;;;;;;;21.5;100;95570.72;;;;
2020/07/29 07:05:55;;;;;;;7.05;4.699999;;;;;;;21.5;100;95570.72;;;;
2020/07/29 07:06:55;;;;;;;7.05;4.699999;;;;;;;21.5;100;95570.72;;;;
2020/07/29 07:07:55;;;;;;;8.65;3.8;;;;;;;22.24;100;95574.2;;;;